Accueil
METAR-TAF:

METAR-TAF

Aéroports :

Nain, Terre-Neuve-et-Labrador, Canada

latitude: 56-33N, longitude: 061-41W, altitude: 6 m

Observation

Le bulletin a été fait il y a 1 heure et 0 minutes, à 20:00 UTC
Vent 9 kt de direction variable avec des rafales jusqu'à 23 kt
Température -29°C
Humidité 50%
Pression 1024 hPa
Visibilité: 24.1 km
Ciel clair

METAR: CYDP 202000Z VRB09G23KT 15SM SKC M29/M36 A3025 RMK G38 PAST HR SLP247

Heure: 17:00 (21:00 UTC)

Prévision

Le bulletin a été fait il y a 1 heure et 21 minutes, à 19:39 UTC
Prévision valable du 20 à 20 UTC au 20 à 24 UTC
Vent 12 kt de ouest avec des rafales jusqu'à 22 kt
Visibilité: 10 km
Ciel clair
Temporairement
du 20 à 20 UTC au 20 à 24 UTC
Vent 20 kt de ouest avec des rafales jusqu'à 30 kt

TAF: CYDP 201939Z 2020/2024 28012G22KT P6SM SKC TEMPO 2020/2024 28020G30KT RMK NXT FCST WILL BE ISSUED AT 211045Z

Observations et prévisions météorologiques de plus de 4000 aéroports (messages METAR et TAF).

Les stations disponibles sont représentées par des disques jaunes et rouges sur la carte.

Passer la souris dessus pour voir le nom de la station.

Cliquer dessus pour voir les observations et prévisions météorologiques.

Pour changer de carte: cliquez sur les boutons verts avec une croix noire pour zoomer, sur le bouton vert avec un tiret pour effectuer un zoom arrière, ou sur les flèches vertes pour les cartes adjacentes.


METAR-TAF: